createdAt,value
2019-04-07T00:00:12.434Z,37.25
2019-04-07T00:02:43.071Z,41.60
2019-04-07T00:05:14.904Z,34.20
2019-04-07T00:07:45.684Z,45.83
2019-04-07T00:10:16.672Z,41.02
2019-04-07T00:12:47.734Z,40.75
2019-04-07T00:15:19.069Z,43.25
2019-04-07T00:17:50.565Z,39.70
2019-04-07T00:20:23.639Z,45.83
2019-04-07T00:22:55.127Z,44.98
2019-04-07T00:25:25.888Z,43.35
2019-04-07T00:27:57.490Z,46.98
2019-04-07T00:30:29.442Z,41.75
2019-04-07T00:33:00.827Z,42.70
2019-04-07T00:35:33.275Z,45.65
2019-04-07T00:38:04.843Z,48.45
2019-04-07T00:40:36.240Z,45.15
2019-04-07T00:43:06.896Z,50.08
2019-04-07T00:45:37.956Z,51.55
2019-04-07T00:48:09.068Z,51.50
2019-04-07T00:50:40.522Z,44.83
2019-04-07T00:53:11.527Z,44.70
2019-04-07T00:55:42.610Z,46.28
2019-04-07T00:58:13.735Z,48.15
2019-04-07T01:00:44.641Z,48.30
2019-04-07T01:03:15.684Z,47.27
2019-04-07T01:05:46.774Z,51.40
2019-04-07T01:08:17.997Z,49.38
2019-04-07T01:10:49.102Z,48.83
2019-04-07T01:13:20.115Z,48.85
2019-04-07T01:15:51.092Z,52.38
2019-04-07T01:18:22.147Z,52.95
2019-04-07T01:20:53.089Z,50.28
2019-04-07T01:23:24.150Z,47.23
2019-04-07T01:25:55.904Z,59.30
2019-04-07T01:28:27.447Z,51.35
2019-04-07T01:30:59.497Z,54.80
2019-04-07T01:33:30.541Z,63.90
2019-04-07T01:36:02.070Z,65.00
2019-04-07T01:38:33.295Z,56.83
2019-04-07T01:41:12.149Z,65.60
2019-04-07T01:43:48.175Z,83.20
2019-04-07T01:46:26.429Z,97.80
2019-04-07T01:49:15.816Z,131.40
2019-04-07T01:51:51.850Z,122.78
2019-04-07T01:54:40.392Z,119.67
2019-04-07T01:57:21.596Z,105.52
2019-04-07T02:00:00.775Z,85.75
2019-04-07T02:02:36.681Z,82.37
2019-04-07T02:05:12.362Z,67.32
2019-04-07T02:07:54.150Z,52.50
2019-04-07T02:10:27.423Z,64.35
2019-04-07T02:13:06.113Z,62.48
2019-04-07T02:15:42.149Z,62.98
2019-04-07T02:18:14.804Z,89.45
2019-04-07T02:20:59.011Z,79.70
2019-04-07T02:23:47.190Z,93.17
2019-04-07T02:26:39.011Z,92.95
2019-04-07T02:29:11.720Z,86.67
2019-04-07T02:31:46.204Z,92.17
2019-04-07T02:34:19.668Z,91.97
2019-04-07T02:37:04.769Z,82.65
2019-04-07T02:39:49.180Z,69.42
2019-04-07T02:42:38.358Z,80.45
2019-04-07T02:45:18.096Z,72.67
2019-04-07T02:47:53.513Z,77.60
2019-04-07T02:50:28.378Z,85.15
2019-04-07T02:53:01.613Z,86.15
2019-04-07T02:55:37.477Z,84.67
2019-04-07T02:58:10.361Z,76.62
2019-04-07T03:00:43.242Z,59.58
2019-04-07T03:03:34.391Z,66.75
2019-04-07T03:06:10.104Z,54.80
2019-04-07T03:08:49.220Z,66.02
2019-04-07T03:11:27.739Z,70.52
2019-04-07T03:14:03.747Z,69.82
2019-04-07T03:16:53.044Z,69.87
2019-04-07T03:19:28.690Z,74.42
2019-04-07T03:22:13.380Z,68.85
2019-04-07T03:24:46.072Z,82.30
2019-04-07T03:27:36.078Z,82.40
2019-04-07T03:30:09.468Z,89.90
2019-04-07T03:33:01.115Z,82.27
2019-04-07T03:35:34.353Z,99.45
2019-04-07T03:38:25.075Z,81.60
2019-04-07T03:40:59.022Z,74.67
2019-04-07T03:43:48.087Z,79.67
2019-04-07T03:46:21.579Z,73.90
2019-04-07T03:49:06.018Z,62.90
2019-04-07T03:51:41.889Z,65.57
2019-04-07T03:54:18.346Z,57.67
2019-04-07T03:56:56.927Z,65.62
2019-04-07T03:59:36.457Z,75.03
2019-04-07T04:02:26.321Z,78.87
2019-04-07T04:04:59.626Z,61.48
2019-04-07T04:07:38.726Z,72.37
2019-04-07T04:10:11.685Z,66.67
2019-04-07T04:12:56.618Z,80.62
2019-04-07T04:15:29.820Z,73.37
2019-04-07T04:18:01.200Z,68.07
2019-04-07T04:20:32.349Z,62.55
2019-04-07T04:23:03.984Z,63.10
2019-04-07T04:25:35.045Z,66.07
2019-04-07T04:28:06.616Z,62.93
2019-04-07T04:30:37.577Z,64.32
2019-04-07T04:33:10.310Z,73.15
2019-04-07T04:35:41.435Z,67.53
2019-04-07T04:38:12.477Z,68.05
2019-04-07T04:40:44.076Z,62.88
2019-04-07T04:43:15.593Z,66.87
2019-04-07T04:45:46.378Z,55.90
2019-04-07T04:48:17.464Z,43.25
2019-04-07T04:50:49.157Z,35.95
2019-04-07T04:53:20.074Z,30.68
2019-04-07T04:55:51.506Z,28.90
2019-04-07T04:58:22.904Z,31.42
2019-04-07T05:00:53.995Z,34.18
2019-04-07T05:03:24.987Z,39.38
2019-04-07T05:05:56.266Z,26.27
2019-04-07T05:08:27.267Z,28.80
2019-04-07T05:10:58.825Z,29.98
2019-04-07T05:13:29.697Z,30.65
2019-04-07T05:16:00.583Z,26.90
2019-04-07T05:18:32.307Z,25.70
2019-04-07T05:21:03.390Z,23.25
2019-04-07T05:23:34.846Z,29.25
2019-04-07T05:26:06.027Z,22.13
2019-04-07T05:28:37.955Z,25.62
2019-04-07T05:31:09.778Z,27.22
2019-04-07T05:33:42.041Z,24.60
2019-04-07T05:36:13.008Z,26.93
2019-04-07T05:38:44.566Z,23.07
2019-04-07T05:41:15.708Z,24.43
2019-04-07T05:43:47.025Z,24.07
2019-04-07T05:46:17.882Z,19.20
2019-04-07T05:48:50.492Z,21.37
2019-04-07T05:51:22.049Z,19.15
2019-04-07T05:53:52.804Z,20.30
2019-04-07T05:56:28.090Z,20.77
2019-04-07T05:58:56.133Z,18.15
2019-04-07T06:01:26.991Z,22.15
2019-04-07T06:03:57.969Z,18.70
2019-04-07T06:06:29.033Z,20.23
2019-04-07T06:08:59.993Z,17.90
2019-04-07T06:11:32.979Z,18.30
2019-04-07T06:14:03.231Z,16.90
2019-04-07T06:16:34.396Z,18.57
2019-04-07T06:19:07.874Z,19.90
2019-04-07T06:21:37.877Z,17.02
2019-04-07T06:24:08.976Z,19.20
2019-04-07T06:26:42.108Z,20.23
2019-04-07T06:29:12.341Z,18.87
2019-04-07T06:31:43.725Z,19.00
2019-04-07T06:34:16.159Z,17.65
2019-04-07T06:36:51.643Z,19.42
2019-04-07T06:39:20.118Z,18.87
2019-04-07T06:41:51.278Z,16.93
2019-04-07T06:44:23.491Z,17.45
2019-04-07T06:46:59.877Z,15.32
2019-04-07T06:49:33.782Z,21.30
2019-04-07T06:52:21.765Z,18.62
2019-04-07T06:55:00.519Z,18.60
2019-04-07T06:57:37.520Z,16.17
2019-04-07T07:00:26.038Z,14.90
2019-04-07T07:02:59.643Z,17.67
2019-04-07T07:05:49.504Z,15.10
2019-04-07T07:08:45.857Z,14.65
2019-04-07T07:11:32.374Z,16.48
2019-04-07T07:14:14.350Z,12.95
2019-04-07T07:17:00.381Z,12.05
2019-04-07T07:19:42.286Z,12.70
2019-04-07T07:22:16.628Z,12.60
2019-04-07T07:24:47.785Z,13.30
2019-04-07T07:27:18.511Z,13.78
2019-04-07T07:29:51.922Z,11.50
2019-04-07T07:32:22.577Z,11.68
2019-04-07T07:34:55.207Z,18.32
2019-04-07T07:37:26.907Z,14.33
2019-04-07T07:39:57.703Z,10.05
2019-04-07T07:42:28.954Z,11.60
2019-04-07T07:44:59.811Z,15.28
2019-04-07T07:47:31.353Z,15.53
2019-04-07T07:50:04.965Z,12.13
2019-04-07T07:52:35.118Z,11.55
2019-04-07T07:55:07.544Z,11.85
2019-04-07T07:57:38.603Z,9.10
2019-04-07T08:00:10.316Z,10.32
2019-04-07T08:02:41.056Z,10.48
2019-04-07T08:05:12.439Z,13.13
2019-04-07T08:07:45.738Z,15.48
2019-04-07T08:10:17.061Z,11.73
2019-04-07T08:12:49.479Z,11.00
2019-04-07T08:15:22.834Z,11.35
2019-04-07T08:17:53.130Z,13.15
2019-04-07T08:20:24.265Z,11.75
2019-04-07T08:22:55.129Z,11.00
2019-04-07T08:25:26.203Z,9.73
2019-04-07T08:27:57.440Z,9.93
2019-04-07T08:30:29.140Z,10.43
2019-04-07T08:33:01.294Z,11.63
2019-04-07T08:35:38.223Z,15.25
2019-04-07T08:38:06.705Z,13.62
2019-04-07T08:40:39.060Z,12.88
2019-04-07T08:43:09.969Z,13.32
2019-04-07T08:45:41.431Z,20.55
2019-04-07T08:48:12.382Z,14.00
2019-04-07T08:50:43.487Z,13.25
2019-04-07T08:53:14.827Z,11.45
2019-04-07T08:55:48.552Z,10.08
2019-04-07T08:58:25.719Z,12.60
2019-04-07T09:00:55.914Z,11.38
2019-04-07T09:03:27.030Z,13.60
2019-04-07T09:05:58.533Z,16.45
2019-04-07T09:08:29.603Z,13.22
2019-04-07T09:11:02.169Z,12.25
2019-04-07T09:13:34.147Z,9.90
2019-04-07T09:16:17.363Z,10.93
2019-04-07T09:19:08.336Z,11.68
2019-04-07T09:21:56.879Z,9.43
2019-04-07T09:24:33.429Z,11.83
2019-04-07T09:27:09.085Z,11.30
2019-04-07T09:29:58.902Z,12.07
2019-04-07T09:32:31.149Z,9.47
2019-04-07T09:35:04.763Z,10.72
2019-04-07T09:37:37.831Z,15.08
2019-04-07T09:40:16.398Z,10.98
2019-04-07T09:43:04.185Z,13.62
2019-04-07T09:45:39.375Z,13.18
2019-04-07T09:48:13.817Z,12.40
2019-04-07T09:50:49.590Z,15.23
2019-04-07T09:53:22.971Z,12.55
2019-04-07T09:56:05.747Z,13.50
2019-04-07T09:58:54.759Z,12.10
2019-04-07T10:01:28.751Z,13.75
2019-04-07T10:04:01.315Z,17.77
2019-04-07T10:06:39.824Z,12.28
2019-04-07T10:09:21.775Z,11.55
2019-04-07T10:12:00.457Z,11.83
2019-04-07T10:14:48.788Z,12.60
2019-04-07T10:17:22.169Z,13.80
2019-04-07T10:20:06.778Z,13.95
2019-04-07T10:22:39.571Z,13.20
2019-04-07T10:25:15.540Z,11.12
2019-04-07T10:27:50.987Z,12.82
2019-04-07T10:30:42.018Z,9.93
2019-04-07T10:33:31.607Z,14.23
2019-04-07T10:36:22.861Z,9.83
2019-04-07T10:39:07.264Z,13.08
2019-04-07T10:53:19.525Z,9.25
2019-04-07T10:56:05.575Z,8.70
2019-04-07T10:58:43.950Z,12.23
2019-04-07T11:01:36.349Z,11.57
2019-04-07T11:04:09.496Z,15.40
2019-04-07T11:06:48.322Z,12.20
2019-04-07T11:09:36.875Z,10.38
2019-04-07T11:12:19.886Z,12.75
2019-04-07T11:14:59.031Z,12.30
2019-04-07T11:17:47.802Z,10.38
2019-04-07T11:20:20.529Z,12.18
2019-04-07T11:22:58.916Z,15.05
2019-04-07T11:25:34.679Z,12.65
2019-04-07T11:28:24.225Z,14.15
2019-04-07T11:30:59.200Z,9.55
2019-04-07T11:33:47.857Z,14.25
2019-04-07T11:36:24.389Z,10.00
2019-04-07T11:39:13.464Z,12.03
2019-04-07T11:41:57.385Z,10.63
2019-04-07T11:44:35.711Z,12.30
2019-04-07T11:47:08.835Z,9.98
2019-04-07T11:49:42.841Z,10.93
2019-04-07T11:52:31.039Z,8.90
2019-04-07T11:55:03.535Z,9.60
2019-04-07T11:57:43.293Z,9.98
2019-04-07T12:00:30.042Z,11.73
2019-04-07T12:03:19.207Z,12.28
2019-04-07T12:05:52.266Z,10.88
2019-04-07T12:08:42.862Z,10.60
2019-04-07T12:11:18.220Z,11.28
2019-04-07T12:14:07.371Z,9.08
2019-04-07T12:16:57.974Z,11.03
2019-04-07T12:19:32.227Z,10.78
2019-04-07T12:22:14.314Z,7.97
2019-04-07T12:24:57.493Z,13.35
2019-04-07T12:27:27.094Z,10.50
2019-04-07T12:30:16.493Z,13.85
2019-04-07T12:32:51.758Z,11.30
2019-04-07T12:35:36.869Z,12.10
2019-04-07T12:38:21.414Z,12.13
2019-04-07T12:41:04.053Z,10.63
2019-04-07T12:43:49.199Z,14.15
2019-04-07T12:46:36.504Z,9.83
2019-04-07T12:49:21.192Z,10.98
2019-04-07T12:52:10.166Z,9.98
2019-04-07T12:54:48.676Z,11.33
2019-04-07T12:57:24.224Z,14.55
2019-04-07T13:00:02.576Z,11.83
2019-04-07T13:02:38.230Z,10.70
2019-04-07T13:05:13.903Z,11.93
2019-04-07T13:07:51.369Z,10.80
2019-04-07T13:31:14.553Z,11.20
2019-04-07T13:33:59.547Z,8.50
2019-04-07T13:36:50.983Z,11.38
2019-04-07T13:39:22.692Z,11.25
2019-04-07T13:42:05.250Z,9.33
2019-04-07T13:44:55.847Z,13.00
2019-04-07T13:47:28.758Z,11.08
2019-04-07T13:50:17.970Z,10.23
2019-04-07T13:52:54.161Z,11.88
2019-04-07T13:55:24.463Z,12.73
2019-04-07T13:58:13.958Z,8.83
2019-04-07T14:01:02.026Z,10.60
2019-04-07T14:03:35.561Z,9.48
2019-04-07T14:06:20.565Z,12.78
2019-04-07T14:08:53.070Z,11.30
2019-04-07T14:11:32.766Z,9.45
2019-04-07T14:14:05.688Z,9.58
2019-04-07T14:16:54.562Z,8.73
2019-04-07T14:19:37.076Z,10.10
2019-04-07T14:22:33.203Z,8.58
2019-04-07T14:25:25.660Z,11.55
2019-04-07T14:28:13.381Z,10.38
2019-04-07T14:30:45.926Z,11.05
2019-04-07T14:33:34.629Z,9.38
2019-04-07T14:36:12.879Z,9.60
2019-04-07T14:38:45.572Z,11.03
2019-04-07T14:41:21.412Z,11.65
2019-04-07T14:43:59.771Z,8.23
2019-04-07T14:46:42.765Z,10.53
2019-04-07T14:49:17.416Z,9.45
2019-04-07T14:51:57.033Z,11.53
2019-04-07T14:54:29.532Z,10.58
2019-04-07T14:57:11.652Z,8.73
2019-04-07T15:00:01.893Z,11.05
2019-04-07T15:02:33.466Z,8.68
2019-04-07T15:05:20.507Z,10.85
2019-04-07T15:08:07.219Z,9.88
2019-04-07T15:10:39.852Z,8.65
2019-04-07T15:13:17.113Z,8.98
2019-04-07T15:15:50.185Z,8.98
2019-04-07T15:18:21.422Z,10.23
2019-04-07T15:20:57.305Z,10.13
2019-04-07T15:23:31.720Z,9.55
2019-04-07T15:26:02.173Z,9.10
2019-04-07T15:28:34.041Z,10.68
2019-04-07T15:31:04.971Z,7.47
2019-04-07T15:33:36.032Z,8.33
2019-04-07T15:36:09.137Z,9.48
2019-04-07T15:38:41.422Z,11.78
2019-04-07T15:41:15.294Z,11.57
2019-04-07T15:43:54.810Z,10.98
2019-04-07T15:46:25.691Z,9.83
2019-04-07T15:48:57.121Z,9.48
2019-04-07T15:51:28.318Z,10.82
2019-04-07T15:53:59.568Z,11.83
2019-04-07T15:56:30.403Z,13.22
2019-04-07T15:59:02.370Z,14.85
2019-04-07T16:01:33.685Z,11.20
2019-04-07T16:04:06.120Z,11.12
2019-04-07T16:06:37.178Z,13.25
2019-04-07T16:09:14.099Z,12.43
2019-04-07T16:11:42.207Z,12.10
2019-04-07T16:14:15.058Z,11.60
2019-04-07T16:16:46.148Z,12.53
2019-04-07T16:19:21.974Z,11.83
2019-04-07T16:21:49.423Z,12.73
2019-04-07T16:24:21.904Z,15.08
2019-04-07T16:26:52.955Z,19.95
2019-04-07T16:29:23.815Z,35.73
2019-04-07T16:31:57.072Z,37.60
2019-04-07T16:34:28.609Z,28.85
2019-04-07T16:37:02.449Z,24.05
2019-04-07T16:39:37.749Z,26.00
2019-04-07T16:42:15.264Z,18.75
2019-04-07T16:44:50.778Z,17.40
2019-04-07T16:47:32.753Z,20.97
2019-04-07T16:50:04.431Z,47.67
2019-04-07T16:52:39.814Z,28.92
2019-04-07T16:55:20.215Z,15.25
2019-04-07T16:57:54.999Z,35.45
2019-04-07T17:00:26.044Z,31.20
2019-04-07T17:02:56.954Z,27.05
2019-04-07T17:05:28.977Z,28.35
2019-04-07T17:07:59.654Z,26.35
2019-04-07T17:10:33.869Z,19.23
2019-04-07T17:13:13.882Z,18.75
2019-04-07T17:15:39.596Z,21.65
2019-04-07T17:18:11.182Z,23.22
2019-04-07T17:20:42.358Z,35.08
2019-04-07T17:23:13.381Z,44.10
2019-04-07T17:25:45.124Z,30.72
2019-04-07T17:28:16.297Z,20.48
2019-04-07T17:30:50.648Z,19.85
2019-04-07T17:33:23.347Z,22.42
2019-04-07T17:35:55.356Z,18.27
2019-04-07T17:38:36.930Z,16.12
2019-04-07T17:41:09.119Z,21.07
2019-04-07T17:43:59.777Z,19.90
2019-04-07T17:46:34.843Z,23.20
2019-04-07T17:49:16.713Z,29.15
2019-04-07T17:52:09.945Z,46.63
2019-04-07T17:54:46.297Z,27.82
2019-04-07T17:57:27.788Z,30.57
2019-04-07T18:00:00.353Z,51.08
2019-04-07T18:02:34.851Z,38.17
2019-04-07T18:05:14.845Z,24.37
2019-04-07T18:07:56.518Z,12.58
2019-04-07T18:10:29.745Z,24.92
2019-04-07T18:13:02.993Z,26.65
2019-04-07T18:15:41.545Z,32.63
2019-04-07T18:18:30.416Z,45.05
2019-04-07T18:21:03.072Z,42.50
2019-04-07T18:23:38.531Z,42.58
2019-04-07T18:26:23.266Z,35.40
2019-04-07T18:28:58.578Z,37.65
2019-04-07T18:31:35.055Z,70.55
2019-04-07T18:34:26.992Z,57.65
2019-04-07T18:37:13.539Z,47.85
2019-04-07T18:39:52.345Z,36.55
2019-04-07T18:42:33.464Z,32.03
2019-04-07T18:45:12.528Z,36.35
2019-04-07T18:47:44.379Z,37.83
2019-04-07T18:50:36.942Z,50.70
2019-04-07T18:53:10.306Z,46.65
2019-04-07T18:55:48.876Z,38.05
2019-04-07T18:58:24.528Z,33.28
2019-04-07T19:01:00.765Z,28.45
2019-04-07T19:03:41.835Z,35.98
2019-04-07T19:06:26.464Z,34.92
2019-04-07T19:09:05.094Z,30.97
2019-04-07T19:12:05.111Z,39.80
2019-04-07T19:14:46.647Z,96.63
2019-04-07T19:17:30.340Z,123.13
2019-04-07T19:20:19.270Z,92.50
2019-04-07T19:23:01.207Z,76.55
2019-04-07T19:25:52.368Z,54.38
2019-04-07T19:28:34.220Z,47.00
2019-04-07T19:31:10.775Z,40.92
2019-04-07T19:33:56.662Z,46.18
2019-04-07T19:36:44.374Z,31.05
2019-04-07T19:39:21.433Z,25.97
2019-04-07T19:41:53.070Z,26.57
2019-04-07T19:44:38.375Z,28.23
2019-04-07T19:47:18.293Z,25.08
2019-04-07T19:49:53.119Z,31.17
2019-04-07T19:52:41.803Z,20.50
2019-04-07T19:55:22.770Z,24.40
2019-04-07T19:57:52.635Z,23.92
2019-04-07T20:00:37.316Z,26.50
2019-04-07T20:03:26.364Z,31.40
2019-04-07T20:05:59.049Z,26.90
2019-04-07T20:08:37.572Z,21.75
2019-04-07T20:11:10.152Z,27.25
2019-04-07T20:13:42.551Z,30.45
2019-04-07T20:16:16.345Z,32.20
2019-04-07T20:18:49.563Z,26.05
2019-04-07T20:21:33.957Z,25.82
2019-04-07T20:24:01.410Z,40.63
2019-04-07T20:26:52.565Z,25.70
2019-04-07T20:29:42.646Z,20.57
2019-04-07T20:32:13.164Z,21.40
2019-04-07T20:35:02.204Z,25.55
2019-04-07T20:37:34.918Z,28.85
2019-04-07T20:40:22.132Z,21.62
2019-04-07T20:42:57.089Z,25.82
2019-04-07T20:45:28.920Z,23.10
2019-04-07T20:48:03.088Z,26.20
2019-04-07T20:50:37.727Z,23.20
2019-04-07T20:53:16.579Z,25.30
2019-04-07T20:55:47.626Z,24.92
2019-04-07T20:58:43.796Z,21.60
2019-04-07T21:01:11.375Z,24.05
2019-04-07T21:03:49.298Z,24.10
2019-04-07T21:06:20.200Z,20.32
2019-04-07T21:09:09.921Z,24.90
2019-04-07T21:11:45.116Z,22.05
2019-04-07T21:14:17.161Z,24.87
2019-04-07T21:17:01.020Z,26.37
2019-04-07T21:19:36.510Z,27.27
2019-04-07T21:22:16.878Z,27.05
2019-04-07T21:25:01.117Z,22.75
2019-04-07T21:27:42.901Z,21.37
2019-04-07T21:30:16.375Z,23.70
2019-04-07T21:32:51.648Z,23.22
2019-04-07T21:35:23.361Z,23.18
2019-04-07T21:38:16.190Z,24.12
2019-04-07T21:41:04.364Z,25.55
2019-04-07T21:43:55.447Z,24.12
2019-04-07T21:46:42.949Z,21.17
2019-04-07T21:49:15.286Z,20.23
2019-04-07T21:51:48.330Z,20.75
2019-04-07T21:54:23.423Z,19.70
2019-04-07T21:57:00.334Z,20.52
2019-04-07T21:59:35.794Z,21.80
2019-04-07T22:02:11.681Z,19.35
2019-04-07T22:04:42.497Z,19.67
2019-04-07T22:07:15.359Z,19.77
2019-04-07T22:09:50.082Z,17.17
2019-04-07T22:12:20.383Z,19.32
2019-04-07T22:14:51.053Z,18.27
2019-04-07T22:17:22.012Z,22.35
2019-04-07T22:19:53.148Z,21.75
2019-04-07T22:22:26.602Z,15.20
2019-04-07T22:24:56.521Z,16.67
2019-04-07T22:27:28.676Z,19.62
2019-04-07T22:29:59.985Z,18.70
2019-04-07T22:32:31.642Z,17.00
2019-04-07T22:35:04.796Z,20.43
2019-04-07T22:37:35.626Z,21.90
2019-04-07T22:40:21.385Z,24.75
2019-04-07T22:42:52.456Z,22.52
2019-04-07T22:45:26.423Z,21.65
2019-04-07T22:47:55.789Z,22.45
2019-04-07T22:50:27.262Z,16.20
2019-04-07T22:52:58.219Z,18.60
2019-04-07T22:55:29.210Z,18.90
2019-04-07T22:58:00.560Z,20.68
2019-04-07T23:00:31.499Z,21.70
2019-04-07T23:03:02.475Z,18.27
2019-04-07T23:05:33.917Z,20.75
2019-04-07T23:08:04.889Z,21.07
2019-04-07T23:10:36.069Z,18.95
2019-04-07T23:13:07.706Z,22.25
2019-04-07T23:15:44.298Z,24.92
2019-04-07T23:18:11.614Z,18.90
2019-04-07T23:20:42.716Z,20.82
2019-04-07T23:23:14.431Z,24.18
2019-04-07T23:25:46.081Z,21.02
2019-04-07T23:28:17.076Z,18.27
2019-04-07T23:30:48.132Z,16.90
2019-04-07T23:33:19.071Z,16.85
2019-04-07T23:35:49.944Z,19.73
2019-04-07T23:38:21.889Z,23.07
2019-04-07T23:40:53.479Z,36.65
2019-04-07T23:43:24.974Z,25.70
2019-04-07T23:45:55.988Z,23.95
2019-04-07T23:48:27.090Z,16.75
2019-04-07T23:50:58.240Z,16.07
2019-04-07T23:54:07.208Z,19.90
2019-04-07T23:56:39.339Z,18.92
2019-04-07T23:59:12.056Z,12.53
